createdAt,value
2018-12-02T00:02:31.590Z,20.00
2018-12-02T00:06:28.289Z,20.00
2018-12-02T00:10:25.621Z,19.90
2018-12-02T00:14:22.555Z,20.00
2018-12-02T00:18:18.916Z,20.00
2018-12-02T00:22:15.626Z,20.00
2018-12-02T00:26:12.396Z,20.10
2018-12-02T00:30:15.577Z,20.10
2018-12-02T00:34:12.248Z,20.10
2018-12-02T00:38:10.144Z,20.00
2018-12-02T00:42:06.868Z,20.00
2018-12-02T00:46:04.039Z,20.10
2018-12-02T00:50:00.714Z,20.10
2018-12-02T00:53:57.379Z,20.00
2018-12-02T00:57:54.193Z,20.00
2018-12-02T01:01:50.793Z,19.90
2018-12-02T01:05:47.518Z,20.00
2018-12-02T01:09:43.962Z,20.00
2018-12-02T01:13:40.579Z,19.90
2018-12-02T01:17:37.126Z,19.90
2018-12-02T01:21:33.624Z,19.90
2018-12-02T01:25:30.167Z,19.90
2018-12-02T01:29:26.705Z,19.90
2018-12-02T01:33:23.435Z,19.90
2018-12-02T01:37:20.145Z,19.70
2018-12-02T01:41:16.715Z,19.40
2018-12-02T01:45:16.779Z,19.30
2018-12-02T01:49:13.670Z,19.20
2018-12-02T01:53:10.707Z,19.20
2018-12-02T01:57:08.469Z,19.10
2018-12-02T02:01:05.136Z,19.00
2018-12-02T02:05:01.872Z,19.10
2018-12-02T02:08:58.960Z,19.00
2018-12-02T02:12:55.559Z,18.90
2018-12-02T02:16:52.112Z,18.90
2018-12-02T02:20:48.772Z,18.90
2018-12-02T02:24:45.314Z,18.80
2018-12-02T02:28:42.876Z,18.80
2018-12-02T02:32:39.428Z,18.80
2018-12-02T02:36:36.068Z,18.80
2018-12-02T02:40:33.362Z,18.80
2018-12-02T02:44:30.008Z,18.80
2018-12-02T02:48:26.519Z,18.70
2018-12-02T02:52:24.207Z,18.70
2018-12-02T02:56:20.926Z,18.70
2018-12-02T03:00:19.706Z,18.60
2018-12-02T03:04:16.432Z,18.60
2018-12-02T03:08:13.142Z,18.60
2018-12-02T03:12:09.692Z,18.60
2018-12-02T03:16:06.260Z,18.60
2018-12-02T03:20:02.982Z,18.60
2018-12-02T03:23:59.496Z,18.60
2018-12-02T03:27:56.319Z,18.60
2018-12-02T03:31:52.949Z,18.60
2018-12-02T03:35:49.581Z,18.50
2018-12-02T03:39:46.166Z,18.50
2018-12-02T03:43:42.671Z,18.50
2018-12-02T03:47:39.148Z,18.50
2018-12-02T03:51:35.609Z,18.50
2018-12-02T03:55:32.183Z,18.50
2018-12-02T03:59:28.678Z,18.50
2018-12-02T04:03:25.098Z,18.40
2018-12-02T04:07:21.650Z,18.50
2018-12-02T04:11:18.413Z,18.50
2018-12-02T04:15:17.963Z,18.40
2018-12-02T04:19:14.940Z,18.40
2018-12-02T04:23:11.564Z,18.40
2018-12-02T04:27:08.099Z,18.40
2018-12-02T04:31:04.490Z,18.40
2018-12-02T04:35:01.000Z,18.40
2018-12-02T04:38:57.521Z,18.40
2018-12-02T04:42:54.039Z,18.40
2018-12-02T04:46:50.708Z,18.40
2018-12-02T04:50:47.201Z,18.40
2018-12-02T04:54:43.818Z,18.40
2018-12-02T04:58:40.326Z,18.40
2018-12-02T05:02:36.931Z,18.40
2018-12-02T05:06:33.595Z,18.30
2018-12-02T05:10:30.343Z,18.40
2018-12-02T05:14:26.922Z,18.40
2018-12-02T05:18:23.500Z,18.30
2018-12-02T05:22:20.951Z,18.40
2018-12-02T05:26:17.528Z,18.40
2018-12-02T05:30:20.778Z,18.30
2018-12-02T05:34:17.484Z,18.40
2018-12-02T05:38:14.126Z,18.30
2018-12-02T05:42:15.914Z,18.30
2018-12-02T05:46:12.388Z,18.30
2018-12-02T05:50:25.377Z,18.30
2018-12-02T05:54:21.865Z,18.30
2018-12-02T05:58:18.535Z,18.30
2018-12-02T06:02:15.077Z,18.30
2018-12-02T06:06:11.598Z,18.30
2018-12-02T06:10:12.926Z,18.30
2018-12-02T06:14:09.428Z,18.30
2018-12-02T06:18:06.237Z,18.30
2018-12-02T06:22:02.697Z,18.20
2018-12-02T06:25:59.226Z,18.30
2018-12-02T06:29:55.972Z,18.20
2018-12-02T06:33:52.538Z,18.20
2018-12-02T06:37:49.501Z,18.20
2018-12-02T06:41:46.080Z,18.20
2018-12-02T06:45:42.855Z,18.20
2018-12-02T06:49:39.872Z,18.20
2018-12-02T06:53:37.109Z,18.20
2018-12-02T06:57:33.673Z,18.20
2018-12-02T07:01:44.172Z,18.20
2018-12-02T07:05:40.749Z,18.20
2018-12-02T07:09:37.258Z,18.20
2018-12-02T07:13:33.874Z,18.20
2018-12-02T07:17:30.410Z,18.20
2018-12-02T07:21:26.966Z,18.20
2018-12-02T07:25:23.568Z,18.20
2018-12-02T07:29:20.258Z,18.20
2018-12-02T07:33:16.812Z,18.20
2018-12-02T07:37:16.932Z,18.20
2018-12-02T07:41:13.726Z,18.20
2018-12-02T07:45:10.434Z,18.20
2018-12-02T07:49:06.970Z,18.20
2018-12-02T07:53:04.205Z,18.20
2018-12-02T07:57:02.392Z,18.20
2018-12-02T08:00:58.860Z,18.10
2018-12-02T08:04:55.441Z,18.10
2018-12-02T08:08:52.097Z,18.10
2018-12-02T08:12:48.730Z,18.20
2018-12-02T08:16:45.077Z,18.10
2018-12-02T08:20:41.775Z,18.20
2018-12-02T08:24:38.378Z,18.20
2018-12-02T08:28:34.960Z,18.20
2018-12-02T08:32:31.560Z,18.10
2018-12-02T08:36:29.575Z,18.10
2018-12-02T08:40:26.261Z,18.10
2018-12-02T08:44:22.872Z,18.10
2018-12-02T08:48:19.375Z,18.10
2018-12-02T08:52:15.894Z,18.10
2018-12-02T08:56:12.476Z,18.10
2018-12-02T09:00:17.114Z,18.10
2018-12-02T09:04:13.841Z,18.10
2018-12-02T09:08:11.941Z,18.20
2018-12-02T09:12:08.518Z,18.10
2018-12-02T09:16:05.222Z,18.20
2018-12-02T09:20:01.711Z,18.10
2018-12-02T09:23:58.296Z,18.10
2018-12-02T09:27:54.841Z,18.10
2018-12-02T09:31:51.451Z,18.10
2018-12-02T09:35:49.193Z,18.10
2018-12-02T09:39:45.801Z,18.10
2018-12-02T09:43:42.396Z,18.10
2018-12-02T09:47:39.034Z,18.10
2018-12-02T09:51:35.675Z,18.10
2018-12-02T09:55:41.455Z,18.10
2018-12-02T09:59:38.921Z,18.10
2018-12-02T10:03:35.499Z,18.10
2018-12-02T10:07:32.317Z,18.10
2018-12-02T10:11:28.785Z,18.10
2018-12-02T10:15:25.644Z,18.10
2018-12-02T10:19:22.325Z,18.10
2018-12-02T10:23:19.900Z,18.10
2018-12-02T10:27:16.462Z,18.10
2018-12-02T10:31:13.107Z,18.10
2018-12-02T10:35:09.895Z,18.10
2018-12-02T10:39:09.990Z,18.20
2018-12-02T10:43:08.885Z,18.40
2018-12-02T10:47:06.046Z,18.50
2018-12-02T10:51:03.277Z,18.50
2018-12-02T10:55:00.778Z,18.60
2018-12-02T11:03:05.947Z,18.80
2018-12-02T11:07:02.511Z,19.00
2018-12-02T11:10:59.160Z,19.10
2018-12-02T11:14:55.739Z,19.30
2018-12-02T11:26:54.143Z,19.60
2018-12-02T11:30:50.545Z,19.70
2018-12-02T11:34:47.329Z,19.80
2018-12-02T11:38:43.860Z,19.90
2018-12-02T11:42:42.053Z,19.90
2018-12-02T11:46:38.715Z,20.00
2018-12-02T11:50:35.450Z,20.00
2018-12-02T11:54:32.134Z,20.10
2018-12-02T11:58:28.648Z,20.10
2018-12-02T12:02:25.090Z,20.10
2018-12-02T12:06:21.743Z,20.10
2018-12-02T12:10:25.185Z,20.10
2018-12-02T12:14:21.850Z,20.10
2018-12-02T12:18:18.512Z,20.10
2018-12-02T12:22:15.056Z,20.10
2018-12-02T12:26:11.803Z,20.20
2018-12-02T12:30:17.783Z,20.20
2018-12-02T12:34:14.387Z,20.20
2018-12-02T12:38:11.000Z,20.10
2018-12-02T12:42:08.595Z,20.10
2018-12-02T12:46:05.564Z,20.10
2018-12-02T12:50:02.363Z,20.10
2018-12-02T12:54:00.368Z,20.10
2018-12-02T12:58:00.800Z,20.20
2018-12-02T13:02:23.428Z,20.20
2018-12-02T13:06:20.038Z,20.20
2018-12-02T13:10:18.002Z,20.20
2018-12-02T13:14:17.219Z,20.20
2018-12-02T13:18:14.728Z,20.20
2018-12-02T13:22:12.264Z,20.30
2018-12-02T13:26:09.211Z,20.30
2018-12-02T13:30:11.518Z,20.40
2018-12-02T13:34:08.484Z,20.30
2018-12-02T13:38:05.359Z,20.40
2018-12-02T13:42:02.186Z,20.40
2018-12-02T13:45:58.846Z,20.40
2018-12-02T13:49:56.043Z,20.40
2018-12-02T13:53:57.768Z,20.40
2018-12-02T13:57:54.486Z,20.40
2018-12-02T14:01:50.902Z,20.40
2018-12-02T14:05:48.779Z,20.40
2018-12-02T14:09:46.131Z,20.40
2018-12-02T14:13:42.827Z,20.40
2018-12-02T14:17:41.810Z,20.40
2018-12-02T14:21:38.501Z,20.40
2018-12-02T14:25:35.108Z,20.40
2018-12-02T14:29:38.914Z,20.40
2018-12-02T14:33:35.875Z,20.50
2018-12-02T14:37:32.335Z,20.50
2018-12-02T14:41:28.952Z,20.50
2018-12-02T14:45:25.901Z,20.40
2018-12-02T14:49:23.362Z,20.40
2018-12-02T14:53:20.355Z,20.40
2018-12-02T14:57:17.141Z,20.40
2018-12-02T15:01:13.967Z,20.40
2018-12-02T15:05:12.091Z,20.30
2018-12-02T15:09:10.968Z,20.30
2018-12-02T15:13:07.940Z,20.30
2018-12-02T15:17:04.638Z,20.40
2018-12-02T15:21:01.375Z,20.40
2018-12-02T15:24:58.652Z,20.40
2018-12-02T15:28:56.527Z,20.40
2018-12-02T15:32:53.471Z,20.30
2018-12-02T15:36:50.280Z,20.40
2018-12-02T15:40:46.896Z,20.40
2018-12-02T15:44:43.595Z,20.50
2018-12-02T15:48:40.501Z,20.50
2018-12-02T15:52:37.539Z,20.50
2018-12-02T15:56:34.085Z,20.50
2018-12-02T16:00:35.639Z,20.50
2018-12-02T16:04:37.100Z,20.50
2018-12-02T16:08:33.740Z,20.60
2018-12-02T16:12:30.964Z,20.60
2018-12-02T16:16:27.790Z,20.60
2018-12-02T16:20:35.111Z,20.50
2018-12-02T16:24:31.815Z,20.30
2018-12-02T16:28:28.806Z,20.30
2018-12-02T16:32:26.649Z,20.50
2018-12-02T16:36:33.620Z,20.50
2018-12-02T16:40:43.058Z,20.50
2018-12-02T16:44:44.674Z,20.50
2018-12-02T16:48:44.055Z,20.50
2018-12-02T16:52:43.031Z,20.50
2018-12-02T16:56:41.713Z,20.50
2018-12-02T17:01:05.369Z,20.40
2018-12-02T17:09:16.853Z,20.40
2018-12-02T17:13:18.520Z,20.40
2018-12-02T17:17:24.005Z,20.40
2018-12-02T17:21:30.716Z,20.40
2018-12-02T17:25:33.061Z,20.30
2018-12-02T17:29:29.872Z,20.40
2018-12-02T17:33:26.429Z,20.40
2018-12-02T17:37:23.015Z,20.40
2018-12-02T17:41:19.730Z,20.40
2018-12-02T17:45:16.266Z,20.40
2018-12-02T17:49:13.265Z,20.40
2018-12-02T17:53:13.350Z,20.40
2018-12-02T17:57:10.048Z,20.40
2018-12-02T18:01:08.294Z,20.30
2018-12-02T18:05:05.416Z,20.40
2018-12-02T18:09:03.084Z,20.40
2018-12-02T18:12:59.903Z,20.40
2018-12-02T18:16:56.676Z,20.70
2018-12-02T18:20:53.280Z,20.80
2018-12-02T18:28:55.968Z,20.90
2018-12-02T18:32:56.882Z,20.90
2018-12-02T18:36:54.878Z,20.90
2018-12-02T18:41:39.740Z,20.90
2018-12-02T18:45:37.188Z,21.00
2018-12-02T18:49:34.938Z,21.10
2018-12-02T18:53:32.275Z,21.10
2018-12-02T18:57:30.188Z,21.10
2018-12-02T19:01:26.914Z,21.10
2018-12-02T19:05:24.388Z,21.20
2018-12-02T19:09:21.333Z,21.20
2018-12-02T19:13:17.776Z,21.20
2018-12-02T19:17:14.389Z,21.30
2018-12-02T19:21:15.174Z,21.30
2018-12-02T19:25:17.464Z,21.30
2018-12-02T19:29:13.996Z,21.30
2018-12-02T19:33:14.446Z,21.30
2018-12-02T19:37:12.601Z,21.30
2018-12-02T19:41:09.521Z,21.30
2018-12-02T19:45:08.002Z,21.30
2018-12-02T19:49:08.284Z,21.30
2018-12-02T19:53:16.481Z,21.40
2018-12-02T19:57:13.599Z,21.30
2018-12-02T20:01:10.234Z,21.30
2018-12-02T20:05:07.204Z,21.40
2018-12-02T20:09:05.048Z,21.30
2018-12-02T20:13:04.771Z,21.40
2018-12-02T20:17:02.162Z,21.40
2018-12-02T20:21:01.683Z,21.40
2018-12-02T20:24:59.092Z,20.90
2018-12-02T20:28:58.256Z,20.50
2018-12-02T20:32:54.862Z,20.40
2018-12-02T20:36:52.132Z,20.30
2018-12-02T20:40:49.759Z,20.10
2018-12-02T20:44:46.279Z,19.90
2018-12-02T20:48:45.833Z,19.80
2018-12-02T20:52:42.320Z,19.80
2018-12-02T20:56:38.832Z,19.70
2018-12-02T21:00:35.925Z,19.70
2018-12-02T21:04:32.841Z,19.60
2018-12-02T21:08:29.479Z,19.50
2018-12-02T21:12:26.277Z,19.50
2018-12-02T21:16:25.349Z,19.50
2018-12-02T21:20:21.918Z,19.40
2018-12-02T21:24:18.555Z,19.40
2018-12-02T21:28:15.373Z,19.40
2018-12-02T21:32:12.094Z,19.30
2018-12-02T21:36:08.894Z,19.30
2018-12-02T21:40:09.054Z,19.30
2018-12-02T21:44:05.625Z,19.20
2018-12-02T21:48:02.167Z,19.20
2018-12-02T21:51:58.779Z,19.20
2018-12-02T21:55:56.447Z,19.10
2018-12-02T21:59:54.090Z,19.10
2018-12-02T22:03:50.791Z,19.10
2018-12-02T22:07:47.370Z,19.10
2018-12-02T22:11:43.991Z,19.00
2018-12-02T22:15:40.598Z,19.00
2018-12-02T22:19:36.858Z,19.00
2018-12-02T22:23:33.138Z,19.00
2018-12-02T22:27:29.819Z,19.00
2018-12-02T22:31:26.490Z,19.00
2018-12-02T22:39:20.223Z,19.00
2018-12-02T22:43:16.781Z,19.00
2018-12-02T22:47:13.188Z,18.90
2018-12-02T22:51:09.762Z,18.90
2018-12-02T22:55:08.103Z,18.90
2018-12-02T22:59:05.106Z,18.90
2018-12-02T23:03:04.786Z,18.90
2018-12-02T23:07:01.351Z,18.90
2018-12-02T23:10:58.330Z,18.80
2018-12-02T23:14:54.814Z,18.80
2018-12-02T23:18:56.839Z,18.80
2018-12-02T23:22:56.104Z,19.00
2018-12-02T23:26:52.593Z,19.20
2018-12-02T23:30:49.123Z,19.20
2018-12-02T23:34:45.446Z,19.30
2018-12-02T23:38:41.659Z,19.40
2018-12-02T23:42:38.134Z,19.50
2018-12-02T23:46:34.727Z,19.50
2018-12-02T23:50:31.429Z,19.60
2018-12-02T23:54:28.120Z,19.70
2018-12-02T23:58:24.730Z,19.80
